Please enter the email address for your account. A verification code will be sent to you. Once you have received the verification code, you will be able to choose a new password for your account.

METAR TAF

[Source: ADDS]
METAR
LFCR 060500Z AUTO 11013KT CAVOK 10/M02 Q1020 =
LFBA 060500Z AUTO 00000KT CAVOK 11/02 Q1018 =
LFSL 060500Z AUTO 14011KT 110V170 CAVOK 13/M03 Q1019 =
LFLW 060500Z AUTO 11015G26KT 9999 ////// 10/M02 Q1020 =
TAF
SR / SS: 05:25 / 18:27 UTC (LFCC 2020-04-06)